Glass Lake, New York
Current Conditions -  °F | °C
As of 11:51 AM on Sunday 23 Nov 2014 (Local Time) from KALB Reporting Station
Few Clouds Few Clouds  
Wind Chill: 11°   Ceiling: Unl
Heat Index: 11°   Visibility: 10mi
Dew Point: -2°   Wind: 7mph
Humidity: 41%   Direction: 160°SSE
Pressure: 30.1"   Gusts: NA
Location:  42.6497°N, 73.5273°W
Report Text: KALB 231651Z 16006KT 10SM FEW050 FEW200 11/M02 A3010 RMK AO2 SLP195 T01111017
Loading
Personal Weather Stations






























Interactive Weather Map New forecast layout! Learn more

10-Day Weather Forecast

Advertisements
Track Severe Weather on mobile